createdAt,value
2022-11-07T00:02:40.184Z,100.00
2022-11-07T00:12:46.014Z,100.00
2022-11-07T00:22:51.689Z,100.00
2022-11-07T00:33:00.213Z,100.00
2022-11-07T00:43:06.125Z,100.00
2022-11-07T00:53:12.019Z,100.00
2022-11-07T01:03:35.184Z,100.00
2022-11-07T01:13:41.415Z,100.00
2022-11-07T01:23:47.098Z,100.00
2022-11-07T01:33:52.721Z,100.00
2022-11-07T01:44:01.754Z,100.00
2022-11-07T01:54:08.374Z,100.00
2022-11-07T02:04:15.099Z,100.00
2022-11-07T02:14:20.928Z,100.00
2022-11-07T02:24:31.393Z,100.00
2022-11-07T02:34:36.991Z,100.00
2022-11-07T02:44:42.560Z,100.00
2022-11-07T02:54:48.103Z,100.00
2022-11-07T03:04:53.910Z,100.00
2022-11-07T03:14:59.497Z,100.00
2022-11-07T03:25:05.605Z,100.00
2022-11-07T03:35:12.287Z,100.00
2022-11-07T03:45:18.708Z,100.00
2022-11-07T03:55:24.351Z,100.00
2022-11-07T04:05:30.416Z,100.00
2022-11-07T04:15:53.710Z,100.00
2022-11-07T04:26:17.079Z,100.00
2022-11-07T04:36:22.712Z,100.00
2022-11-07T04:46:28.292Z,100.00
2022-11-07T04:56:34.665Z,100.00
2022-11-07T05:06:40.428Z,100.00
2022-11-07T05:16:46.237Z,100.00
2022-11-07T05:26:51.958Z,100.00
2022-11-07T05:36:57.540Z,100.00
2022-11-07T05:47:03.064Z,100.00
2022-11-07T05:57:08.647Z,100.00
2022-11-07T06:07:14.209Z,100.00
2022-11-07T06:17:19.758Z,100.00
2022-11-07T06:27:25.403Z,100.00
2022-11-07T06:37:30.991Z,100.00
2022-11-07T06:47:36.583Z,100.00
2022-11-07T06:57:42.127Z,100.00
2022-11-07T07:07:47.894Z,100.00
2022-11-07T07:17:53.472Z,100.00
2022-11-07T07:27:59.040Z,100.00
2022-11-07T07:38:04.604Z,100.00
2022-11-07T07:48:10.653Z,100.00
2022-11-07T07:58:16.611Z,99.65
2022-11-07T08:08:22.279Z,99.12
2022-11-07T08:18:28.009Z,98.76
2022-11-07T08:28:35.466Z,98.67
2022-11-07T08:38:41.133Z,98.00
2022-11-07T08:48:46.683Z,97.21
2022-11-07T08:58:52.665Z,96.45
2022-11-07T09:08:58.264Z,95.34
2022-11-07T09:19:04.046Z,94.87
2022-11-07T09:29:36.574Z,93.96
2022-11-07T09:39:42.342Z,92.89
2022-11-07T09:49:51.214Z,92.19
2022-11-07T09:59:59.928Z,91.22
2022-11-07T10:10:14.910Z,90.43
2022-11-07T10:20:33.486Z,89.34
2022-11-07T10:30:39.344Z,88.41
2022-11-07T10:40:47.102Z,87.66
2022-11-07T10:50:56.498Z,86.91
2022-11-07T11:01:08.074Z,86.50
2022-11-07T11:11:29.282Z,85.67
2022-11-07T11:21:46.649Z,85.10
2022-11-07T11:31:56.525Z,84.01
2022-11-07T11:42:05.003Z,83.20
2022-11-07T11:52:16.589Z,83.04
2022-11-07T12:02:42.277Z,83.15
2022-11-07T12:13:02.683Z,83.08
2022-11-07T12:23:26.543Z,83.10
2022-11-07T12:33:38.215Z,83.20
2022-11-07T12:43:56.248Z,83.35
2022-11-07T12:54:16.215Z,83.64
2022-11-07T13:04:29.571Z,84.02
2022-11-07T13:14:39.102Z,83.94
2022-11-07T13:24:54.593Z,84.26
2022-11-07T13:35:02.905Z,84.43
2022-11-07T13:45:25.662Z,84.93
2022-11-07T13:55:42.451Z,85.29
2022-11-07T14:05:50.376Z,85.43
2022-11-07T14:15:55.751Z,85.68
2022-11-07T14:26:03.570Z,86.02
2022-11-07T14:36:13.285Z,86.40
2022-11-07T14:46:24.006Z,86.78
2022-11-07T14:56:33.936Z,87.21
2022-11-07T15:06:46.139Z,87.33
2022-11-07T15:16:53.177Z,87.70
2022-11-07T15:27:03.474Z,87.77
2022-11-07T15:37:15.967Z,87.81
2022-11-07T15:47:23.324Z,87.85
2022-11-07T15:57:29.054Z,87.95
2022-11-07T16:07:34.905Z,88.57
2022-11-07T16:17:40.590Z,88.65
2022-11-07T16:27:51.346Z,89.01
2022-11-07T16:37:59.845Z,89.14
2022-11-07T16:48:06.345Z,89.29
2022-11-07T16:58:25.268Z,89.26
2022-11-07T17:08:37.336Z,89.47
2022-11-07T17:18:43.264Z,89.67
2022-11-07T17:28:48.914Z,89.54
2022-11-07T17:38:54.819Z,89.72
2022-11-07T17:49:03.401Z,89.64
2022-11-07T17:59:12.893Z,89.57
2022-11-07T18:09:18.577Z,89.47
2022-11-07T18:19:24.179Z,89.38
2022-11-07T18:29:30.125Z,89.86
2022-11-07T18:39:35.898Z,90.39
2022-11-07T18:49:41.536Z,90.89
2022-11-07T18:59:47.489Z,91.00
2022-11-07T19:09:53.058Z,91.33
2022-11-07T19:19:58.666Z,91.77
2022-11-07T19:30:04.420Z,92.36
2022-11-07T19:40:12.006Z,92.75
2022-11-07T19:50:17.791Z,93.16
2022-11-07T20:00:26.006Z,93.44
2022-11-07T20:10:31.755Z,94.15
2022-11-07T20:20:37.495Z,94.19
2022-11-07T20:30:44.535Z,94.89
2022-11-07T20:40:50.495Z,95.88
2022-11-07T20:51:12.512Z,95.78
2022-11-07T21:01:21.183Z,95.97
2022-11-07T21:11:27.373Z,95.84
2022-11-07T21:21:34.584Z,95.83
2022-11-07T21:31:42.096Z,95.32
2022-11-07T21:41:47.805Z,95.49
2022-11-07T21:51:54.044Z,95.67
2022-11-07T22:01:59.975Z,95.41
2022-11-07T22:12:06.040Z,95.40
2022-11-07T22:22:11.711Z,95.40
2022-11-07T22:32:17.307Z,95.33
2022-11-07T22:42:23.989Z,95.35
2022-11-07T22:52:29.691Z,95.31
2022-11-07T23:02:35.594Z,95.33
2022-11-07T23:12:41.346Z,95.36
2022-11-07T23:22:47.123Z,95.19
2022-11-07T23:32:52.699Z,95.28
2022-11-07T23:42:58.326Z,95.13
2022-11-07T23:53:24.793Z,95.06
